createdAt,value
2018-10-07T00:01:11.625Z,95956.38
2018-10-07T00:03:39.070Z,95957.19
2018-10-07T00:06:06.547Z,95956.21
2018-10-07T00:08:36.238Z,95949.38
2018-10-07T00:11:03.792Z,95955.98
2018-10-07T00:13:31.278Z,95953.88
2018-10-07T00:15:58.739Z,95961.35
2018-10-07T00:18:26.233Z,95958.39
2018-10-07T00:20:53.651Z,95962.17
2018-10-07T00:23:21.377Z,95972.37
2018-10-07T00:25:48.809Z,95968.99
2018-10-07T00:28:16.159Z,95973.81
2018-10-07T00:30:43.643Z,95979.40
2018-10-07T00:33:11.259Z,95982.79
2018-10-07T00:38:31.503Z,95979.95
2018-10-07T00:40:58.862Z,95975.67
2018-10-07T00:43:26.184Z,95979.56
2018-10-07T00:45:53.571Z,95984.27
2018-10-07T00:48:20.897Z,95985.30
2018-10-07T00:50:48.199Z,95979.37
2018-10-07T00:53:15.602Z,95981.15
2018-10-07T00:55:42.902Z,95984.36
2018-10-07T00:58:10.441Z,95987.75
2018-10-07T01:00:37.847Z,95984.91
2018-10-07T01:03:05.328Z,95983.60
2018-10-07T01:05:32.870Z,95983.05
2018-10-07T01:08:00.228Z,95980.09
2018-10-07T01:10:27.563Z,95982.38
2018-10-07T01:12:54.992Z,95985.55
2018-10-07T01:15:22.492Z,95980.85
2018-10-07T01:17:49.836Z,95983.52
2018-10-07T01:20:17.199Z,95977.55
2018-10-07T01:22:44.491Z,95986.90
2018-10-07T01:25:11.859Z,95989.36
2018-10-07T01:27:39.167Z,95997.23
2018-10-07T01:30:07.402Z,95994.05
2018-10-07T01:32:34.691Z,95992.95
2018-10-07T01:35:01.915Z,95994.22
2018-10-07T01:37:29.162Z,95989.09
2018-10-07T01:39:56.464Z,95990.48
2018-10-07T01:42:23.733Z,95990.90
2018-10-07T01:44:51.003Z,95990.61
2018-10-07T01:47:18.242Z,95987.65
2018-10-07T01:49:45.547Z,95995.56
2018-10-07T01:52:12.828Z,95989.98
2018-10-07T01:54:40.154Z,95989.93
2018-10-07T01:57:07.493Z,95986.54
2018-10-07T01:59:34.827Z,95990.45
2018-10-07T02:02:02.891Z,95996.58
2018-10-07T02:04:30.181Z,95998.05
2018-10-07T02:06:57.517Z,95999.28
2018-10-07T02:09:24.894Z,95989.48
2018-10-07T02:11:52.164Z,95991.81
2018-10-07T02:14:19.473Z,95991.37
2018-10-07T02:16:46.827Z,95988.85
2018-10-07T02:19:14.128Z,95989.19
2018-10-07T02:21:41.556Z,96001.83
2018-10-07T02:24:09.033Z,96000.36
2018-10-07T02:26:36.474Z,96007.81
2018-10-07T02:29:03.742Z,96005.35
2018-10-07T02:31:31.034Z,96002.17
2018-10-07T02:33:59.101Z,96001.55
2018-10-07T02:36:26.448Z,95998.02
2018-10-07T02:38:53.857Z,95994.94
2018-10-07T02:41:21.197Z,95996.81
2018-10-07T02:43:48.502Z,96000.20
2018-10-07T02:46:15.699Z,96005.84
2018-10-07T02:48:42.978Z,96006.64
2018-10-07T02:51:10.795Z,96011.81
2018-10-07T02:53:38.073Z,96014.80
2018-10-07T02:56:05.702Z,96020.76
2018-10-07T02:58:33.145Z,96023.44
2018-10-07T03:01:00.432Z,96025.67
2018-10-07T03:03:27.760Z,96030.78
2018-10-07T03:05:55.076Z,96025.68
2018-10-07T03:08:22.377Z,96031.29
2018-10-07T03:10:49.665Z,96035.52
2018-10-07T03:13:17.292Z,96046.44
2018-10-07T03:15:44.568Z,96045.81
2018-10-07T03:18:11.866Z,96053.67
2018-10-07T03:20:39.139Z,96049.67
2018-10-07T03:23:06.629Z,96051.17
2018-10-07T03:25:33.957Z,96052.69
2018-10-07T03:28:01.305Z,96056.69
2018-10-07T03:30:28.624Z,96048.11
2018-10-07T03:32:55.876Z,96059.98
2018-10-07T03:35:23.122Z,96060.62
2018-10-07T03:37:51.164Z,96073.98
2018-10-07T03:40:18.420Z,96073.38
2018-10-07T03:42:45.752Z,96072.80
2018-10-07T03:45:13.095Z,96073.76
2018-10-07T03:47:40.418Z,96076.49
2018-10-07T03:50:07.696Z,96080.00
2018-10-07T03:52:35.600Z,96075.99
2018-10-07T03:55:02.852Z,96080.95
2018-10-07T03:57:30.166Z,96084.66
2018-10-07T03:59:57.569Z,96090.16
2018-10-07T04:02:24.832Z,96084.19
2018-10-07T04:04:52.319Z,96090.98
2018-10-07T04:07:19.587Z,96093.25
2018-10-07T04:09:46.891Z,96090.29
2018-10-07T04:12:14.192Z,96092.30
2018-10-07T04:14:41.532Z,96086.86
2018-10-07T04:17:08.797Z,96088.63
2018-10-07T04:19:36.139Z,96082.01
2018-10-07T04:22:03.452Z,96088.20
2018-10-07T04:24:32.157Z,96083.92
2018-10-07T04:26:59.483Z,96082.39
2018-10-07T04:29:27.122Z,96087.47
2018-10-07T04:31:54.527Z,96086.83
2018-10-07T04:34:21.903Z,96087.09
2018-10-07T04:36:49.193Z,96083.29
2018-10-07T04:39:16.602Z,96084.27
2018-10-07T04:41:44.383Z,96093.13
2018-10-07T04:44:11.692Z,96092.77
2018-10-07T04:46:39.260Z,96090.06
2018-10-07T04:49:07.476Z,96082.73
2018-10-07T04:51:34.750Z,96090.07
2018-10-07T04:54:02.508Z,96089.61
2018-10-07T04:56:29.781Z,96087.23
2018-10-07T04:58:57.091Z,96094.37
2018-10-07T05:01:24.355Z,96090.58
2018-10-07T05:03:51.742Z,96101.84
2018-10-07T05:06:20.308Z,96104.34
2018-10-07T05:08:47.850Z,96101.13
2018-10-07T05:11:15.248Z,96100.91
2018-10-07T05:13:47.490Z,96106.27
2018-10-07T05:16:32.374Z,96109.23
2018-10-07T05:19:00.211Z,96118.83
2018-10-07T05:21:27.631Z,96118.82
2018-10-07T05:23:55.393Z,96127.39
2018-10-07T05:26:22.776Z,96133.66
2018-10-07T05:28:50.080Z,96134.48
2018-10-07T05:31:17.378Z,96138.41
2018-10-07T05:33:44.819Z,96140.08
2018-10-07T05:36:12.672Z,96144.67
2018-10-07T05:38:40.027Z,96144.57
2018-10-07T05:41:07.583Z,96148.02
2018-10-07T05:43:34.892Z,96154.06
2018-10-07T05:46:02.229Z,96157.73
2018-10-07T05:48:29.527Z,96160.34
2018-10-07T05:50:56.904Z,96162.98
2018-10-07T05:53:24.238Z,96170.34
2018-10-07T05:55:51.533Z,96161.42
2018-10-07T05:58:18.929Z,96165.83
2018-10-07T06:00:46.310Z,96173.41
2018-10-07T06:03:18.469Z,96171.05
2018-10-07T06:05:46.410Z,96184.13
2018-10-07T06:08:15.338Z,96180.55
2018-10-07T06:10:42.698Z,96184.11
2018-10-07T06:13:10.054Z,96190.09
2018-10-07T06:15:38.508Z,96191.88
2018-10-07T06:18:06.082Z,96197.70
2018-10-07T06:20:33.411Z,96191.38
2018-10-07T06:23:00.839Z,96196.26
2018-10-07T06:25:28.174Z,96202.66
2018-10-07T06:27:55.927Z,96202.39
2018-10-07T06:30:23.237Z,96214.16
2018-10-07T06:32:50.834Z,96212.50
2018-10-07T06:35:18.176Z,96210.48
2018-10-07T06:37:45.521Z,96213.83
2018-10-07T06:40:12.913Z,96213.68
2018-10-07T06:42:40.258Z,96210.31
2018-10-07T06:45:07.656Z,96213.98
2018-10-07T06:47:34.968Z,96217.81
2018-10-07T06:50:02.273Z,96216.73
2018-10-07T06:52:29.634Z,96219.05
2018-10-07T06:54:56.947Z,96216.61
2018-10-07T06:57:24.224Z,96223.30
2018-10-07T06:59:51.509Z,96222.94
2018-10-07T07:02:18.890Z,96217.64
2018-10-07T07:04:46.172Z,96222.52
2018-10-07T07:07:13.473Z,96224.84
2018-10-07T07:09:40.764Z,96225.92
2018-10-07T07:12:08.065Z,96225.84
2018-10-07T07:14:35.391Z,96228.22
2018-10-07T07:17:02.701Z,96231.88
2018-10-07T07:19:30.048Z,96238.95
2018-10-07T07:21:57.303Z,96244.37
2018-10-07T07:24:24.633Z,96249.38
2018-10-07T07:26:53.396Z,96246.66
2018-10-07T07:29:20.828Z,96257.89
2018-10-07T07:31:48.200Z,96256.35
2018-10-07T07:34:15.580Z,96258.16
2018-10-07T07:36:42.892Z,96262.31
2018-10-07T07:39:10.137Z,96275.44
2018-10-07T07:41:37.523Z,96274.94
2018-10-07T07:44:04.864Z,96275.59
2018-10-07T07:46:32.136Z,96272.11
2018-10-07T07:49:08.712Z,96276.56
2018-10-07T07:51:36.455Z,96287.35
2018-10-07T07:54:03.785Z,96282.94
2018-10-07T07:56:31.113Z,96295.31
2018-10-07T07:58:58.422Z,96291.58
2018-10-07T08:01:25.889Z,96290.98
2018-10-07T08:03:53.164Z,96296.95
2018-10-07T08:06:20.486Z,96295.39
2018-10-07T08:08:47.746Z,96290.24
2018-10-07T08:11:15.021Z,96293.86
2018-10-07T08:13:42.310Z,96296.20
2018-10-07T08:16:09.605Z,96294.64
2018-10-07T08:18:36.870Z,96296.28
2018-10-07T08:21:04.162Z,96300.55
2018-10-07T08:23:31.518Z,96294.38
2018-10-07T08:25:58.767Z,96297.46
2018-10-07T08:28:26.071Z,96299.67
2018-10-07T08:30:53.362Z,96304.85
2018-10-07T08:33:20.696Z,96299.94
2018-10-07T08:35:48.045Z,96299.89
2018-10-07T08:38:15.377Z,96299.84
2018-10-07T08:40:42.652Z,96299.74
2018-10-07T08:43:09.974Z,96301.80
2018-10-07T08:45:37.298Z,96300.78
2018-10-07T08:48:04.646Z,96304.69
2018-10-07T08:50:31.914Z,96303.23
2018-10-07T08:52:59.195Z,96304.77
2018-10-07T08:55:26.576Z,96311.36
2018-10-07T08:57:53.828Z,96313.51
2018-10-07T09:00:21.117Z,96316.33
2018-10-07T09:02:48.387Z,96322.67
2018-10-07T09:05:15.650Z,96326.84
2018-10-07T09:07:43.005Z,96331.41
2018-10-07T09:10:10.288Z,96328.22
2018-10-07T09:12:37.597Z,96336.32
2018-10-07T09:15:04.997Z,96345.06
2018-10-07T09:17:32.305Z,96338.81
2018-10-07T09:19:59.539Z,96353.23
2018-10-07T09:22:26.818Z,96352.91
2018-10-07T09:24:54.370Z,96349.52
2018-10-07T09:27:21.800Z,96358.84
2018-10-07T09:29:49.138Z,96361.64
2018-10-07T09:32:16.547Z,96367.11
2018-10-07T09:34:43.852Z,96363.72
2018-10-07T09:37:11.107Z,96366.80
2018-10-07T09:39:38.424Z,96372.22
2018-10-07T09:42:05.812Z,96372.72
2018-10-07T09:44:33.134Z,96364.47
2018-10-07T09:47:00.485Z,96362.31
2018-10-07T09:49:27.786Z,96360.11
2018-10-07T09:51:55.093Z,96368.03
2018-10-07T09:54:22.372Z,96351.06
2018-10-07T09:56:49.606Z,96358.22
2018-10-07T09:59:16.889Z,96360.88
2018-10-07T10:01:44.130Z,96369.53
2018-10-07T10:04:11.559Z,96368.64
2018-10-07T10:06:38.733Z,96367.13
2018-10-07T10:09:07.160Z,96369.70
2018-10-07T10:11:34.478Z,96354.23
2018-10-07T10:14:01.786Z,96360.95
2018-10-07T10:16:36.872Z,96358.14
2018-10-07T10:19:05.283Z,96357.36
2018-10-07T10:21:36.003Z,96360.97
2018-10-07T10:24:40.928Z,96357.21
2018-10-07T10:27:14.872Z,96365.04
2018-10-07T10:29:47.867Z,96369.16
2018-10-07T10:32:24.688Z,96369.52
2018-10-07T10:35:03.900Z,96347.80
2018-10-07T10:37:44.250Z,96374.47
2018-10-07T10:40:25.423Z,96375.29
2018-10-07T10:42:59.225Z,96377.63
2018-10-07T10:45:37.951Z,96373.84
2018-10-07T10:48:18.016Z,96375.27
2018-10-07T10:50:50.327Z,96381.48
2018-10-07T10:53:25.143Z,96382.58
2018-10-07T10:55:58.918Z,96377.00
2018-10-07T10:58:49.490Z,96375.25
2018-10-07T11:01:56.259Z,96375.74
2018-10-07T11:04:26.767Z,96373.63
2018-10-07T11:07:03.646Z,96374.89
2018-10-07T11:10:51.307Z,96374.81
2018-10-07T11:13:26.746Z,96373.97
2018-10-07T11:17:13.301Z,96370.36
2018-10-07T11:19:48.131Z,96369.37
2018-10-07T11:22:25.136Z,96368.38
2018-10-07T11:27:06.544Z,96374.46
2018-10-07T11:29:41.678Z,96380.09
2018-10-07T11:32:52.408Z,96377.32
2018-10-07T11:35:34.898Z,96371.38
2018-10-07T11:38:14.394Z,96373.40
2018-10-07T11:43:02.792Z,96369.09
2018-10-07T11:45:35.850Z,96372.20
2018-10-07T11:48:14.839Z,96374.71
2018-10-07T11:50:58.640Z,96379.84
2018-10-07T11:53:34.873Z,96369.62
2018-10-07T11:56:02.166Z,96374.08
2018-10-07T11:58:29.502Z,96380.91
2018-10-07T12:07:58.571Z,96386.16
2018-10-07T12:10:25.946Z,96385.45
2018-10-07T12:12:53.214Z,96381.56
2018-10-07T12:15:20.452Z,96379.90
2018-10-07T12:17:47.762Z,96384.69
2018-10-07T12:20:15.066Z,96384.03
2018-10-07T12:22:42.390Z,96387.87
2018-10-07T12:25:09.727Z,96387.75
2018-10-07T12:27:36.987Z,96388.87
2018-10-07T12:30:04.600Z,96392.06
2018-10-07T12:32:31.865Z,96389.30
2018-10-07T12:34:59.171Z,96385.61
2018-10-07T12:37:26.575Z,96386.00
2018-10-07T12:39:53.871Z,96387.34
2018-10-07T12:42:21.280Z,96388.98
2018-10-07T12:44:48.644Z,96391.03
2018-10-07T12:47:15.960Z,96397.78
2018-10-07T12:49:43.310Z,96401.89
2018-10-07T12:52:10.614Z,96406.83
2018-10-07T12:54:37.970Z,96406.16
2018-10-07T12:57:05.300Z,96406.90
2018-10-07T12:59:32.660Z,96407.28
2018-10-07T13:01:59.975Z,96405.16
2018-10-07T13:04:27.247Z,96405.95
2018-10-07T13:06:54.581Z,96406.61
2018-10-07T13:09:21.871Z,96401.76
2018-10-07T13:11:49.356Z,96403.54
2018-10-07T13:14:16.643Z,96407.98
2018-10-07T13:16:44.032Z,96409.20
2018-10-07T13:19:11.383Z,96404.19
2018-10-07T13:21:38.583Z,96419.06
2018-10-07T13:24:05.870Z,96414.39
2018-10-07T13:26:33.207Z,96418.73
2018-10-07T13:29:00.866Z,96415.20
2018-10-07T13:31:28.195Z,96416.94
2018-10-07T13:33:55.445Z,96418.58
2018-10-07T13:36:22.790Z,96417.75
2018-10-07T13:38:50.112Z,96420.91
2018-10-07T13:41:17.387Z,96420.55
2018-10-07T13:43:44.658Z,96424.69
2018-10-07T13:46:11.927Z,96423.34
2018-10-07T13:48:39.246Z,96425.67
2018-10-07T13:51:06.662Z,96423.28
2018-10-07T13:53:34.212Z,96426.83
2018-10-07T13:56:01.537Z,96431.27
2018-10-07T13:58:28.807Z,96423.58
2018-10-07T14:00:56.057Z,96422.80
2018-10-07T14:03:23.342Z,96421.73
2018-10-07T14:05:50.630Z,96429.81
2018-10-07T14:08:17.896Z,96429.81
2018-10-07T14:10:45.219Z,96429.21
2018-10-07T14:13:12.513Z,96424.27
2018-10-07T14:15:39.864Z,96431.58
2018-10-07T14:18:07.147Z,96427.77
2018-10-07T14:20:34.454Z,96436.42
2018-10-07T14:23:01.777Z,96432.96
2018-10-07T14:25:29.027Z,96428.72
2018-10-07T14:27:56.411Z,96431.15
2018-10-07T14:30:23.773Z,96433.03
2018-10-07T14:32:51.090Z,96428.66
2018-10-07T14:35:18.418Z,96432.73
2018-10-07T14:37:45.749Z,96434.03
2018-10-07T14:40:13.152Z,96436.16
2018-10-07T14:42:40.511Z,96435.41
2018-10-07T14:45:07.966Z,96437.66
2018-10-07T14:47:35.268Z,96433.95
2018-10-07T14:50:02.616Z,96407.69
2018-10-07T14:52:29.896Z,96430.48
2018-10-07T14:54:57.253Z,96440.39
2018-10-07T14:57:24.668Z,96439.33
2018-10-07T14:59:51.980Z,96439.13
2018-10-07T15:02:19.359Z,96439.40
2018-10-07T15:04:46.607Z,96439.91
2018-10-07T15:07:13.911Z,96443.43
2018-10-07T15:09:41.504Z,96440.34
2018-10-07T15:12:08.843Z,96442.90
2018-10-07T15:14:36.119Z,96444.98
2018-10-07T15:17:03.509Z,96443.52
2018-10-07T15:19:30.861Z,96444.05
2018-10-07T15:21:58.179Z,96443.88
2018-10-07T15:24:25.465Z,96447.47
2018-10-07T15:26:52.826Z,96452.33
2018-10-07T15:29:20.164Z,96446.41
2018-10-07T15:31:47.471Z,96451.23
2018-10-07T15:34:14.707Z,96456.39
2018-10-07T15:36:41.973Z,96451.36
2018-10-07T15:39:09.230Z,96456.20
2018-10-07T15:41:36.497Z,96452.13
2018-10-07T15:44:03.903Z,96459.30
2018-10-07T15:46:31.250Z,96464.70
2018-10-07T15:48:58.573Z,96458.27
2018-10-07T15:51:25.900Z,96460.76
2018-10-07T15:53:53.163Z,96463.28
2018-10-07T15:56:20.494Z,96471.22
2018-10-07T15:58:47.762Z,96477.41
2018-10-07T16:01:15.094Z,96485.56
2018-10-07T16:03:42.413Z,96485.94
2018-10-07T16:06:09.711Z,96478.84
2018-10-07T16:08:36.980Z,96484.34
2018-10-07T16:11:04.644Z,96487.70
2018-10-07T16:13:31.865Z,96497.70
2018-10-07T16:15:59.117Z,96494.84
2018-10-07T16:18:27.171Z,96495.91
2018-10-07T16:20:54.504Z,96495.41
2018-10-07T16:23:21.804Z,96498.08
2018-10-07T16:25:49.197Z,96501.59
2018-10-07T16:28:16.464Z,96503.23
2018-10-07T16:30:44.072Z,96500.28
2018-10-07T16:33:11.367Z,96509.58
2018-10-07T16:35:38.622Z,96511.09
2018-10-07T16:38:06.042Z,96508.83
2018-10-07T16:40:33.330Z,96517.17
2018-10-07T16:43:00.600Z,96518.55
2018-10-07T16:45:27.847Z,96522.21
2018-10-07T16:47:55.168Z,96531.19
2018-10-07T16:50:22.480Z,96535.81
2018-10-07T16:52:49.847Z,96538.88
2018-10-07T16:55:17.026Z,96545.98
2018-10-07T16:57:44.274Z,96537.12
2018-10-07T17:00:11.590Z,96543.44
2018-10-07T17:02:38.968Z,96555.49
2018-10-07T17:05:11.967Z,96550.42
2018-10-07T17:07:39.247Z,96549.57
2018-10-07T17:10:06.766Z,96552.26
2018-10-07T17:12:34.206Z,96554.53
2018-10-07T17:15:01.504Z,96559.25
2018-10-07T17:17:28.864Z,96558.70
2018-10-07T17:19:56.120Z,96568.89
2018-10-07T17:22:23.380Z,96568.03
2018-10-07T17:24:50.650Z,96575.51
2018-10-07T17:27:18.015Z,96580.72
2018-10-07T17:29:45.336Z,96578.20
2018-10-07T17:32:12.562Z,96588.94
2018-10-07T17:34:39.894Z,96599.66
2018-10-07T17:37:07.158Z,96595.31
2018-10-07T17:39:34.672Z,96605.31
2018-10-07T17:42:01.949Z,96613.23
2018-10-07T17:44:29.236Z,96614.95
2018-10-07T17:46:56.539Z,96612.74
2018-10-07T17:49:23.794Z,96617.33
2018-10-07T17:51:51.109Z,96623.62
2018-10-07T17:54:18.397Z,96627.66
2018-10-07T17:56:45.709Z,96628.31
2018-10-07T17:59:12.979Z,96634.91
2018-10-07T18:01:40.249Z,96638.98
2018-10-07T18:04:07.560Z,96643.92
2018-10-07T18:06:34.858Z,96651.20
2018-10-07T18:09:02.249Z,96660.47
2018-10-07T18:11:29.551Z,96656.27
2018-10-07T18:13:56.872Z,96662.98
2018-10-07T18:16:24.241Z,96656.95
2018-10-07T18:18:51.536Z,96661.92
2018-10-07T18:21:19.008Z,96661.41
2018-10-07T18:23:46.212Z,96664.83
2018-10-07T18:26:13.556Z,96670.25
2018-10-07T18:28:40.800Z,96669.97
2018-10-07T18:31:08.133Z,96674.39
2018-10-07T18:33:35.369Z,96675.91
2018-10-07T18:36:03.927Z,96685.44
2018-10-07T18:38:31.236Z,96670.44
2018-10-07T18:40:58.492Z,96688.86
2018-10-07T18:43:57.318Z,96692.02
2018-10-07T18:46:24.605Z,96700.69
2018-10-07T18:48:52.062Z,96698.58
2018-10-07T18:51:19.237Z,96698.69
2018-10-07T18:53:46.656Z,96707.20
2018-10-07T18:56:14.064Z,96709.38
2018-10-07T18:58:41.366Z,96717.98
2018-10-07T19:01:08.740Z,96715.16
2018-10-07T19:03:36.018Z,96723.67
2018-10-07T19:06:03.256Z,96719.95
2018-10-07T19:08:30.598Z,96726.16
2018-10-07T19:10:57.904Z,96726.04
2018-10-07T19:13:25.268Z,96734.23
2018-10-07T19:15:52.496Z,96737.75
2018-10-07T19:18:19.801Z,96742.77
2018-10-07T19:20:47.119Z,96751.20
2018-10-07T19:23:14.316Z,96751.78
2018-10-07T19:25:41.693Z,96752.56
2018-10-07T19:28:09.015Z,96746.23
2018-10-07T19:30:36.334Z,96750.33
2018-10-07T19:33:03.599Z,96757.62
2018-10-07T19:35:30.851Z,96761.04
2018-10-07T19:37:58.108Z,96766.94
2018-10-07T19:40:25.356Z,96766.70
2018-10-07T19:42:52.674Z,96775.42
2018-10-07T19:45:19.982Z,96779.00
2018-10-07T19:47:47.229Z,96776.37
2018-10-07T19:50:14.548Z,96788.77
2018-10-07T19:52:41.894Z,96784.37
2018-10-07T19:55:09.137Z,96779.36
2018-10-07T19:57:38.001Z,96778.25
2018-10-07T20:00:05.230Z,96783.87
2018-10-07T20:02:32.567Z,96781.83
2018-10-07T20:04:59.804Z,96784.80
2018-10-07T20:07:27.157Z,96788.16
2018-10-07T20:09:54.467Z,96795.94
2018-10-07T20:12:21.809Z,96795.33
2018-10-07T20:14:49.086Z,96797.84
2018-10-07T20:17:16.299Z,96796.77
2018-10-07T20:19:43.616Z,96796.20
2018-10-07T20:22:13.380Z,96795.09
2018-10-07T20:24:40.688Z,96792.36
2018-10-07T20:27:08.041Z,96801.31
2018-10-07T20:29:35.318Z,96798.92
2018-10-07T20:32:02.658Z,96797.47
2018-10-07T20:34:29.927Z,96804.30
2018-10-07T20:36:57.245Z,96803.34
2018-10-07T20:39:24.457Z,96805.72
2018-10-07T20:41:51.741Z,96800.46
2018-10-07T20:44:19.076Z,96805.25
2018-10-07T20:46:46.430Z,96807.74
2018-10-07T20:49:13.684Z,96808.45
2018-10-07T20:51:40.948Z,96816.80
2018-10-07T20:54:08.203Z,96814.03
2018-10-07T20:56:35.479Z,96811.98
2018-10-07T20:59:02.726Z,96813.35
2018-10-07T21:01:30.064Z,96813.95
2018-10-07T21:03:57.361Z,96810.97
2018-10-07T21:06:24.590Z,96817.48
2018-10-07T21:08:51.970Z,96816.15
2018-10-07T21:11:19.209Z,96814.14
2018-10-07T21:13:46.501Z,96820.17
2018-10-07T21:16:13.809Z,96819.57
2018-10-07T21:18:41.071Z,96819.66
2018-10-07T21:21:08.355Z,96825.34
2018-10-07T21:23:35.656Z,96824.36
2018-10-07T21:26:02.944Z,96834.98
2018-10-07T21:28:30.276Z,96829.05
2018-10-07T21:30:57.589Z,96835.99
2018-10-07T21:33:24.865Z,96841.81
2018-10-07T21:35:52.169Z,96839.72
2018-10-07T21:38:19.502Z,96841.47
2018-10-07T21:40:46.775Z,96840.03
2018-10-07T21:43:14.097Z,96834.33
2018-10-07T21:45:41.343Z,96830.91
2018-10-07T21:48:08.677Z,96832.09
2018-10-07T21:50:35.935Z,96832.48
2018-10-07T21:53:03.196Z,96829.97
2018-10-07T21:55:30.538Z,96827.66
2018-10-07T21:57:57.807Z,96821.48
2018-10-07T22:00:25.119Z,96824.59
2018-10-07T22:02:52.428Z,96822.87
2018-10-07T22:05:19.688Z,96826.55
2018-10-07T22:07:46.991Z,96818.93
2018-10-07T22:10:14.194Z,96816.38
2018-10-07T22:12:41.544Z,96807.92
2018-10-07T22:15:08.849Z,96800.96
2018-10-07T22:17:36.197Z,96801.32
2018-10-07T22:20:03.624Z,96806.38
2018-10-07T22:22:30.974Z,96806.14
2018-10-07T22:24:58.272Z,96808.07
2018-10-07T22:27:25.581Z,96805.91
2018-10-07T22:29:52.910Z,96807.00
2018-10-07T22:32:20.170Z,96807.69
2018-10-07T22:34:47.527Z,96812.80
2018-10-07T22:37:14.776Z,96809.44
2018-10-07T22:39:42.028Z,96812.39
2018-10-07T22:42:09.344Z,96810.75
2018-10-07T22:44:36.623Z,96809.48
2018-10-07T22:47:03.938Z,96802.63
2018-10-07T22:49:31.172Z,96802.64
2018-10-07T22:51:58.487Z,96807.84
2018-10-07T22:54:25.721Z,96811.80
2018-10-07T22:56:53.114Z,96817.55
2018-10-07T22:59:20.289Z,96817.06
2018-10-07T23:01:47.537Z,96820.17
2018-10-07T23:05:44.256Z,96825.27
2018-10-07T23:08:11.655Z,96815.69
2018-10-07T23:10:38.988Z,96821.02
2018-10-07T23:13:06.280Z,96821.02
2018-10-07T23:15:33.525Z,96817.69
2018-10-07T23:18:00.965Z,96812.58
2018-10-07T23:20:28.339Z,96817.22
2018-10-07T23:22:55.669Z,96816.44
2018-10-07T23:25:22.922Z,96815.63
2018-10-07T23:27:50.216Z,96811.61
2018-10-07T23:30:17.514Z,96810.72
2018-10-07T23:32:44.931Z,96819.55
2018-10-07T23:35:12.152Z,96820.00
2018-10-07T23:37:39.479Z,96820.69
2018-10-07T23:40:07.338Z,96822.55
2018-10-07T23:42:34.571Z,96819.31
2018-10-07T23:45:01.925Z,96816.30
2018-10-07T23:47:29.252Z,96820.91
2018-10-07T23:49:56.610Z,96828.22
2018-10-07T23:52:23.944Z,96826.40
2018-10-07T23:54:51.200Z,96828.34
2018-10-07T23:57:18.577Z,96826.51
2018-10-07T23:59:45.846Z,96838.72
